Time;durP1;ratioP1;P1;durP2;ratioP2;P2;SDS_P1;SDS_P2;PMS_P1;PMS_P2;Temp;Humidity;BMP_temperature;BMP_pressure;BME280_temperature;BME280_humidity;BME280_pressure;Samples;Min_cycle;Max_cycle;Signal;HPM_P1;HPM_P2
2021/09/07 00:01:12;;;;;;;8.05;7.25;;;;;;;;;;5084399;28;20202;-46
2021/09/07 00:03:38;;;;;;;8.65;7.43;;;;;;;;;;5086077;28;20189;-46
2021/09/07 00:06:04;;;;;;;7.88;7.18;;;;;;;;;;5094246;28;20177;-46
2021/09/07 00:08:30;;;;;;;8.07;7.28;;;;;;;;;;5093361;28;20184;-46
2021/09/07 00:10:56;;;;;;;8.52;7.65;;;;;;;;;;5094302;28;20219;-46
2021/09/07 00:13:22;;;;;;;9.10;7.85;;;;;;;;;;5094606;28;20180;-46
2021/09/07 00:15:48;;;;;;;8.45;7.32;;;;;;;;;;5093986;28;20513;-46
2021/09/07 00:18:14;;;;;;;8.70;7.63;;;;;;;;;;5075819;28;20297;-46
2021/09/07 00:20:40;;;;;;;8.10;7.30;;;;;;;;;;5074238;28;20228;-46
2021/09/07 00:23:05;;;;;;;8.40;7.50;;;;;;;;;;5090350;28;20193;-45
2021/09/07 00:25:32;;;;;;;10.43;7.80;;;;;;;;;;5089597;28;20182;-45
2021/09/07 00:27:57;;;;;;;7.85;7.05;;;;;;;;;;5089012;28;20260;-45
2021/09/07 00:30:23;;;;;;;7.75;6.93;;;;;;;;;;5094096;28;20272;-45
2021/09/07 00:32:49;;;;;;;8.52;7.60;;;;;;;;;;5078019;28;20186;-45
2021/09/07 00:35:15;;;;;;;8.80;7.80;;;;;;;;;;5078513;28;20233;-45
2021/09/07 00:37:42;;;;;;;9.02;7.70;;;;;;;;;;5092480;28;20182;-46
2021/09/07 00:40:09;;;;;;;8.25;7.40;;;;;;;;;;5092587;28;20201;-46
2021/09/07 00:42:36;;;;;;;9.55;7.75;;;;;;;;;;5075325;28;20194;-46
2021/09/07 00:45:06;;;;;;;8.77;7.40;;;;;;;;;;5074113;28;20170;-46
2021/09/07 00:47:32;;;;;;;8.20;7.40;;;;;;;;;;5085031;28;20174;-46
2021/09/07 00:49:58;;;;;;;8.50;7.55;;;;;;;;;;5093370;28;20472;-46
2021/09/07 00:52:25;;;;;;;8.35;7.45;;;;;;;;;;5074589;28;20193;-46
2021/09/07 00:54:52;;;;;;;10.13;7.47;;;;;;;;;;5073726;28;20218;-46
2021/09/07 00:57:18;;;;;;;9.40;8.13;;;;;;;;;;5080118;28;20244;-46
2021/09/07 00:59:44;;;;;;;13.75;7.60;;;;;;;;;;5074227;28;20170;-46
2021/09/07 01:02:12;;;;;;;8.45;7.60;;;;;;;;;;5080422;28;20565;-45
2021/09/07 01:04:38;;;;;;;8.73;7.63;;;;;;;;;;5097055;28;20197;-45
2021/09/07 01:07:04;;;;;;;12.63;8.07;;;;;;;;;;5089723;28;20217;-45
2021/09/07 01:09:31;;;;;;;8.43;7.53;;;;;;;;;;5083918;28;20182;-45
2021/09/07 01:11:57;;;;;;;8.88;7.97;;;;;;;;;;5096565;28;20422;-45
2021/09/07 01:14:34;;;;;;;8.57;7.65;;;;;;;;;;5089403;28;20205;-45
2021/09/07 01:17:00;;;;;;;9.10;7.93;;;;;;;;;;5094801;28;20248;-46
2021/09/07 01:19:26;;;;;;;8.70;7.80;;;;;;;;;;5097563;28;20162;-46
2021/09/07 01:21:53;;;;;;;9.23;7.72;;;;;;;;;;5082597;28;20183;-46
2021/09/07 01:24:20;;;;;;;8.02;7.22;;;;;;;;;;5097644;28;20190;-46
2021/09/07 01:26:46;;;;;;;9.05;8.07;;;;;;;;;;5088136;28;20188;-46
2021/09/07 01:29:12;;;;;;;9.05;7.35;;;;;;;;;;5096344;28;20661;-46
2021/09/07 01:31:38;;;;;;;9.10;7.30;;;;;;;;;;5096027;28;20192;-46
2021/09/07 01:34:04;;;;;;;9.88;8.10;;;;;;;;;;5097284;28;20272;-46
2021/09/07 01:36:30;;;;;;;8.27;7.32;;;;;;;;;;5087462;28;20184;-46
2021/09/07 01:38:55;;;;;;;10.35;7.63;;;;;;;;;;5089187;28;20189;-46
2021/09/07 01:41:21;;;;;;;8.40;7.60;;;;;;;;;;5096288;28;20186;-46
2021/09/07 01:43:49;;;;;;;8.43;7.47;;;;;;;;;;5096713;28;20537;-46
2021/09/07 01:46:15;;;;;;;10.07;7.35;;;;;;;;;;5092332;28;20190;-46
2021/09/07 01:48:41;;;;;;;7.95;7.15;;;;;;;;;;5076328;28;20185;-46
2021/09/07 01:51:07;;;;;;;8.38;7.40;;;;;;;;;;5076665;28;20545;-45
2021/09/07 01:53:33;;;;;;;8.77;7.88;;;;;;;;;;5076641;28;20589;-45
2021/09/07 01:55:59;;;;;;;8.10;7.00;;;;;;;;;;5084275;28;20223;-45
2021/09/07 01:58:25;;;;;;;8.07;7.28;;;;;;;;;;5086249;28;20453;-45
2021/09/07 02:00:51;;;;;;;8.35;7.45;;;;;;;;;;5095440;28;20232;-45
2021/09/07 02:03:17;;;;;;;8.13;7.32;;;;;;;;;;5089202;28;20599;-46
2021/09/07 02:05:43;;;;;;;7.80;6.75;;;;;;;;;;5081984;28;20230;-45
2021/09/07 02:08:09;;;;;;;8.48;7.47;;;;;;;;;;5094249;28;20617;-45
2021/09/07 02:10:35;;;;;;;8.43;7.47;;;;;;;;;;5096216;28;20178;-45
2021/09/07 02:13:01;;;;;;;8.40;7.50;;;;;;;;;;5095441;28;20240;-45
2021/09/07 02:15:29;;;;;;;8.80;7.53;;;;;;;;;;5092239;28;20574;-45
2021/09/07 02:17:55;;;;;;;8.73;7.15;;;;;;;;;;5085028;28;20197;-45
2021/09/07 02:20:21;;;;;;;10.20;7.85;;;;;;;;;;5090635;28;20214;-45
2021/09/07 02:22:47;;;;;;;8.32;7.53;;;;;;;;;;5076122;28;20174;-45
2021/09/07 02:25:13;;;;;;;8.82;7.95;;;;;;;;;;5076063;28;20568;-45
2021/09/07 02:27:39;;;;;;;8.82;7.63;;;;;;;;;;5088263;28;20218;-45
2021/09/07 02:30:06;;;;;;;8.77;7.82;;;;;;;;;;5095443;28;20174;-45
2021/09/07 02:32:32;;;;;;;9.32;8.07;;;;;;;;;;5096240;28;20181;-46
2021/09/07 02:34:58;;;;;;;7.97;7.18;;;;;;;;;;5095895;28;20205;-46
2021/09/07 02:37:24;;;;;;;8.27;7.40;;;;;;;;;;5094387;28;20181;-46
2021/09/07 02:39:50;;;;;;;8.77;7.75;;;;;;;;;;5095915;28;20173;-46
2021/09/07 02:42:16;;;;;;;8.50;7.47;;;;;;;;;;5095270;28;20190;-46
2021/09/07 02:44:42;;;;;;;7.85;7.03;;;;;;;;;;5095764;28;20172;-46
2021/09/07 02:47:08;;;;;;;7.97;7.00;;;;;;;;;;5092899;28;20545;-46
2021/09/07 02:49:34;;;;;;;8.40;7.50;;;;;;;;;;5076833;28;20315;-46
2021/09/07 02:52:00;;;;;;;9.18;7.30;;;;;;;;;;5077619;28;20490;-46
2021/09/07 02:54:26;;;;;;;9.18;8.18;;;;;;;;;;5084205;28;20194;-46
2021/09/07 02:56:52;;;;;;;8.57;7.68;;;;;;;;;;5078415;28;20455;-46
2021/09/07 02:59:18;;;;;;;8.88;7.95;;;;;;;;;;5094641;28;20264;-45
2021/09/07 03:01:44;;;;;;;8.57;7.43;;;;;;;;;;5095371;28;20282;-45
2021/09/07 03:04:10;;;;;;;8.73;7.82;;;;;;;;;;5095208;28;20185;-45
2021/09/07 03:06:36;;;;;;;8.48;7.68;;;;;;;;;;5094809;28;20260;-45
2021/09/07 03:09:02;;;;;;;10.05;7.90;;;;;;;;;;5081587;28;20552;-45
2021/09/07 03:11:28;;;;;;;8.80;7.90;;;;;;;;;;5095462;28;20178;-45
2021/09/07 03:13:54;;;;;;;9.23;8.32;;;;;;;;;;5086741;28;20214;-45
2021/09/07 03:16:20;;;;;;;8.30;7.20;;;;;;;;;;5075411;28;20163;-46
2021/09/07 03:18:46;;;;;;;8.35;7.55;;;;;;;;;;5089182;28;20177;-46
2021/09/07 03:21:12;;;;;;;8.68;7.57;;;;;;;;;;5095057;28;20178;-45
2021/09/07 03:23:38;;;;;;;8.15;7.32;;;;;;;;;;5094241;28;20182;-45
2021/09/07 03:26:04;;;;;;;8.88;7.97;;;;;;;;;;5095054;28;20209;-45
2021/09/07 03:28:30;;;;;;;8.70;7.28;;;;;;;;;;5093520;28;20185;-45
2021/09/07 03:30:56;;;;;;;8.38;7.50;;;;;;;;;;5094446;28;20182;-46
2021/09/07 03:33:22;;;;;;;9.25;7.55;;;;;;;;;;5094618;28;20182;-46
2021/09/07 03:35:48;;;;;;;9.60;7.82;;;;;;;;;;5087986;28;20201;-46
2021/09/07 03:38:14;;;;;;;11.63;7.82;;;;;;;;;;5084970;28;20260;-46
2021/09/07 03:40:40;;;;;;;8.90;7.93;;;;;;;;;;5094135;28;20545;-45
2021/09/07 03:43:06;;;;;;;10.00;7.88;;;;;;;;;;5094641;28;20174;-45
2021/09/07 03:45:32;;;;;;;11.38;7.70;;;;;;;;;;5094277;28;20177;-45
2021/09/07 03:47:58;;;;;;;8.82;7.82;;;;;;;;;;5093888;28;20201;-45
2021/09/07 03:50:24;;;;;;;7.93;7.13;;;;;;;;;;5094417;28;20208;-45
2021/09/07 03:52:50;;;;;;;8.27;6.95;;;;;;;;;;5094826;28;20423;-45
2021/09/07 03:55:16;;;;;;;11.88;7.53;;;;;;;;;;5090637;28;20190;-46
2021/09/07 03:57:42;;;;;;;8.68;7.43;;;;;;;;;;5073943;28;20257;-46
2021/09/07 04:00:08;;;;;;;9.55;7.57;;;;;;;;;;5085673;28;20170;-46
2021/09/07 04:02:34;;;;;;;9.13;7.53;;;;;;;;;;5074429;28;20198;-46
2021/09/07 04:05:00;;;;;;;9.25;7.32;;;;;;;;;;5085299;28;20464;-46
2021/09/07 04:07:26;;;;;;;11.55;7.85;;;;;;;;;;5073904;28;20494;-45
2021/09/07 04:09:52;;;;;;;9.20;7.80;;;;;;;;;;5073602;28;20182;-45
2021/09/07 04:12:18;;;;;;;9.07;7.43;;;;;;;;;;5076176;28;20186;-45
2021/09/07 04:14:44;;;;;;;13.68;7.65;;;;;;;;;;5077722;28;20213;-46
2021/09/07 04:17:11;;;;;;;14.57;8.07;;;;;;;;;;5074828;28;20182;-46
2021/09/07 04:19:37;;;;;;;12.68;8.05;;;;;;;;;;5085064;28;20182;-46
2021/09/07 04:22:03;;;;;;;12.55;7.30;;;;;;;;;;5082984;28;20177;-46
2021/09/07 04:24:29;;;;;;;10.57;7.63;;;;;;;;;;5090792;28;20547;-46
2021/09/07 04:26:55;;;;;;;12.77;8.13;;;;;;;;;;5095067;28;20186;-46
2021/09/07 04:29:22;;;;;;;12.13;7.53;;;;;;;;;;5090500;28;20201;-45
2021/09/07 04:31:48;;;;;;;10.73;7.30;;;;;;;;;;5075431;28;20197;-46
2021/09/07 04:34:14;;;;;;;11.20;7.80;;;;;;;;;;5089249;28;20206;-45
2021/09/07 04:36:39;;;;;;;12.05;7.75;;;;;;;;;;5093126;28;20177;-46
2021/09/07 04:39:06;;;;;;;8.95;6.97;;;;;;;;;;5104539;28;20189;-46
2021/09/07 04:41:32;;;;;;;10.82;7.68;;;;;;;;;;5097304;28;20178;-45
2021/09/07 04:43:58;;;;;;;8.60;7.68;;;;;;;;;;5096844;28;20185;-45
2021/09/07 04:46:24;;;;;;;10.77;7.70;;;;;;;;;;5086079;28;20193;-45
2021/09/07 04:48:54;;;;;;;9.93;7.45;;;;;;;;;;5095374;28;20182;-45
2021/09/07 04:51:20;;;;;;;9.38;7.60;;;;;;;;;;5098209;28;20780;-45
2021/09/07 04:53:46;;;;;;;10.57;7.35;;;;;;;;;;5096948;28;20205;-45
2021/09/07 04:56:12;;;;;;;9.25;7.18;;;;;;;;;;5097702;28;20760;-45
2021/09/07 04:58:38;;;;;;;13.15;7.38;;;;;;;;;;5085204;28;20178;-45
2021/09/07 05:01:05;;;;;;;10.00;7.50;;;;;;;;;;5082004;28;20192;-46
2021/09/07 05:03:31;;;;;;;11.20;7.70;;;;;;;;;;5087364;28;20240;-45
2021/09/07 05:05:57;;;;;;;12.15;7.72;;;;;;;;;;5090121;28;20167;-45
2021/09/07 05:08:24;;;;;;;10.88;7.72;;;;;;;;;;5096175;28;20178;-45
2021/09/07 05:10:49;;;;;;;10.02;7.80;;;;;;;;;;5087495;28;20467;-45
2021/09/07 05:13:16;;;;;;;10.25;7.75;;;;;;;;;;5081047;28;20183;-46
2021/09/07 05:15:42;;;;;;;10.23;7.70;;;;;;;;;;5097520;28;20201;-46
2021/09/07 05:18:08;;;;;;;10.43;7.95;;;;;;;;;;5096857;28;20211;-45
2021/09/07 05:20:34;;;;;;;11.18;8.00;;;;;;;;;;5097551;28;20185;-45
2021/09/07 05:23:00;;;;;;;11.95;8.68;;;;;;;;;;5097164;28;20174;-45
2021/09/07 05:25:28;;;;;;;9.48;7.47;;;;;;;;;;5096976;28;20185;-45
2021/09/07 05:27:54;;;;;;;9.23;7.95;;;;;;;;;;5095919;28;20433;-45
2021/09/07 05:30:21;;;;;;;11.63;7.95;;;;;;;;;;5097386;28;20209;-46
2021/09/07 05:32:47;;;;;;;9.35;7.55;;;;;;;;;;5096323;28;20174;-46
2021/09/07 05:35:13;;;;;;;9.95;7.88;;;;;;;;;;5096595;28;20229;-46
2021/09/07 05:37:39;;;;;;;9.48;7.82;;;;;;;;;;5095983;28;20217;-45
2021/09/07 05:40:07;;;;;;;11.43;7.65;;;;;;;;;;5096516;28;20162;-45
2021/09/07 05:42:33;;;;;;;11.30;8.10;;;;;;;;;;5079864;28;20185;-45
2021/09/07 05:44:59;;;;;;;10.35;7.82;;;;;;;;;;5085270;28;20177;-45
2021/09/07 05:47:26;;;;;;;13.18;8.55;;;;;;;;;;5095527;28;20244;-45
2021/09/07 05:49:52;;;;;;;9.73;8.25;;;;;;;;;;5095968;28;20182;-46
2021/09/07 05:52:18;;;;;;;9.73;7.82;;;;;;;;;;5097216;28;20452;-46
2021/09/07 05:54:44;;;;;;;13.00;8.27;;;;;;;;;;5096272;28;20209;-46
2021/09/07 05:57:10;;;;;;;10.88;8.20;;;;;;;;;;5078410;28;20270;-46
2021/09/07 05:59:36;;;;;;;9.43;7.93;;;;;;;;;;5078834;28;20197;-46
2021/09/07 06:02:02;;;;;;;10.80;7.53;;;;;;;;;;5096991;28;20468;-46
2021/09/07 06:04:28;;;;;;;10.55;8.52;;;;;;;;;;5096550;28;20200;-45
2021/09/07 06:06:54;;;;;;;9.43;7.45;;;;;;;;;;5082469;28;20437;-46
2021/09/07 06:09:20;;;;;;;13.98;8.30;;;;;;;;;;5096404;28;20190;-46
2021/09/07 06:11:46;;;;;;;10.93;8.15;;;;;;;;;;5095758;28;20608;-45
2021/09/07 06:14:12;;;;;;;9.93;8.43;;;;;;;;;;5095473;28;20247;-45
2021/09/07 06:16:38;;;;;;;14.00;8.25;;;;;;;;;;5096381;28;20170;-45
2021/09/07 06:19:04;;;;;;;11.43;8.18;;;;;;;;;;5095738;28;20171;-45
2021/09/07 06:21:31;;;;;;;9.95;8.38;;;;;;;;;;5084347;28;20175;-45
2021/09/07 06:23:57;;;;;;;10.50;7.88;;;;;;;;;;5076160;28;20282;-45
2021/09/07 06:26:23;;;;;;;11.15;8.57;;;;;;;;;;5076899;28;20178;-45
2021/09/07 06:28:49;;;;;;;11.10;8.30;;;;;;;;;;5095925;28;20509;-45
2021/09/07 06:31:15;;;;;;;11.43;8.43;;;;;;;;;;5079775;28;20216;-45
2021/09/07 06:33:41;;;;;;;13.23;8.82;;;;;;;;;;5094103;28;20635;-45
2021/09/07 06:36:07;;;;;;;11.57;8.25;;;;;;;;;;5077960;28;20185;-45
2021/09/07 06:38:33;;;;;;;11.13;8.65;;;;;;;;;;5095199;28;20213;-45
2021/09/07 06:40:59;;;;;;;10.20;8.68;;;;;;;;;;5095490;28;20200;-45
2021/09/07 06:43:25;;;;;;;12.13;8.65;;;;;;;;;;5096086;28;20241;-45
2021/09/07 06:45:51;;;;;;;10.10;8.57;;;;;;;;;;5078269;28;20494;-45
2021/09/07 06:48:17;;;;;;;14.00;8.85;;;;;;;;;;5094665;28;20178;-45
2021/09/07 06:50:43;;;;;;;11.63;8.88;;;;;;;;;;5086055;28;20182;-45
2021/09/07 06:53:09;;;;;;;13.90;9.32;;;;;;;;;;5075642;28;20173;-45
2021/09/07 06:55:38;;;;;;;11.05;8.73;;;;;;;;;;5080046;28;20472;-46
2021/09/07 06:58:04;;;;;;;14.82;9.25;;;;;;;;;;5094094;28;20181;-46
2021/09/07 07:00:30;;;;;;;10.55;8.73;;;;;;;;;;5095403;28;20170;-46
2021/09/07 07:02:56;;;;;;;11.82;8.52;;;;;;;;;;5094773;28;20197;-46
2021/09/07 07:05:24;;;;;;;11.38;9.23;;;;;;;;;;5092096;28;20209;-46
2021/09/07 07:07:50;;;;;;;10.10;8.95;;;;;;;;;;5074610;28;20178;-46
2021/09/07 07:10:16;;;;;;;11.63;8.70;;;;;;;;;;5075140;28;20217;-46
2021/09/07 07:12:42;;;;;;;11.55;9.02;;;;;;;;;;5075173;28;20175;-46
2021/09/07 07:15:09;;;;;;;13.70;9.60;;;;;;;;;;5076535;28;20206;-46
2021/09/07 07:17:35;;;;;;;11.02;8.57;;;;;;;;;;5077671;28;20186;-46
2021/09/07 07:20:01;;;;;;;11.63;9.40;;;;;;;;;;5074979;28;20171;-46
2021/09/07 07:22:27;;;;;;;12.05;9.38;;;;;;;;;;5074903;28;20670;-46
2021/09/07 07:24:53;;;;;;;11.80;9.18;;;;;;;;;;5075120;28;20170;-46
2021/09/07 07:27:19;;;;;;;10.98;9.43;;;;;;;;;;5074463;28;20186;-46
2021/09/07 07:29:45;;;;;;;11.45;9.50;;;;;;;;;;5090623;28;20182;-46
2021/09/07 07:32:11;;;;;;;14.15;10.38;;;;;;;;;;5094886;28;20162;-46
2021/09/07 07:34:37;;;;;;;13.15;10.60;;;;;;;;;;5078819;28;20482;-46
2021/09/07 07:37:05;;;;;;;11.27;9.73;;;;;;;;;;5075476;28;20182;-46
2021/09/07 07:39:31;;;;;;;10.55;8.80;;;;;;;;;;5093525;28;20174;-46
2021/09/07 07:41:57;;;;;;;15.20;9.40;;;;;;;;;;5094321;28;20499;-46
2021/09/07 07:44:23;;;;;;;13.85;10.65;;;;;;;;;;5094957;28;20273;-46
2021/09/07 07:46:50;;;;;;;12.10;10.18;;;;;;;;;;5080219;28;20507;-46
2021/09/07 07:49:16;;;;;;;13.70;10.15;;;;;;;;;;5074230;28;20592;-46
2021/09/07 07:51:42;;;;;;;13.40;9.73;;;;;;;;;;5091758;28;20220;-46
2021/09/07 07:54:09;;;;;;;11.02;9.30;;;;;;;;;;5079012;28;20194;-46
2021/09/07 07:56:36;;;;;;;11.88;9.82;;;;;;;;;;5083352;28;20174;-46
2021/09/07 07:59:02;;;;;;;11.20;9.32;;;;;;;;;;5093880;28;20178;-46
2021/09/07 08:01:28;;;;;;;12.25;9.68;;;;;;;;;;5094233;28;20170;-46
2021/09/07 08:03:54;;;;;;;11.40;9.80;;;;;;;;;;5087443;28;20186;-45
2021/09/07 08:06:20;;;;;;;11.23;10.02;;;;;;;;;;5074384;28;20198;-45
2021/09/07 08:08:46;;;;;;;12.50;10.60;;;;;;;;;;5073740;28;20205;-45
2021/09/07 08:11:12;;;;;;;10.90;9.60;;;;;;;;;;5088660;28;20215;-45
2021/09/07 08:13:38;;;;;;;12.82;9.63;;;;;;;;;;5090108;28;20174;-45
2021/09/07 08:16:05;;;;;;;13.07;9.75;;;;;;;;;;5074284;28;20171;-45
2021/09/07 08:18:31;;;;;;;11.77;9.73;;;;;;;;;;5087868;28;20178;-45
2021/09/07 08:20:57;;;;;;;11.27;9.93;;;;;;;;;;5086352;28;20235;-45
2021/09/07 08:23:23;;;;;;;10.18;8.93;;;;;;;;;;5083272;28;20557;-45
2021/09/07 08:25:49;;;;;;;13.32;9.02;;;;;;;;;;5074286;28;20193;-45
2021/09/07 08:28:15;;;;;;;10.88;8.90;;;;;;;;;;5073690;28;20162;-45
2021/09/07 08:30:41;;;;;;;10.00;8.77;;;;;;;;;;5079005;28;20182;-45
2021/09/07 08:33:13;;;;;;;10.38;8.93;;;;;;;;;;5094547;28;20231;-45
2021/09/07 08:35:40;;;;;;;10.27;9.18;;;;;;;;;;5093850;28;20775;-45
2021/09/07 08:38:06;;;;;;;11.95;9.07;;;;;;;;;;5091790;28;20238;-45
2021/09/07 08:40:32;;;;;;;10.40;9.13;;;;;;;;;;5090845;28;20263;-45
2021/09/07 08:42:58;;;;;;;10.98;9.15;;;;;;;;;;5102757;28;20181;-45
2021/09/07 08:45:24;;;;;;;10.88;8.68;;;;;;;;;;5093248;28;20193;-45
2021/09/07 08:47:50;;;;;;;10.18;8.77;;;;;;;;;;5089501;28;20182;-46
2021/09/07 08:50:16;;;;;;;10.48;9.38;;;;;;;;;;5086835;28;20182;-46
2021/09/07 08:52:43;;;;;;;8.48;7.63;;;;;;;;;;5091584;28;20196;-46
2021/09/07 08:55:09;;;;;;;9.75;8.70;;;;;;;;;;5092582;28;20289;-46
2021/09/07 08:57:35;;;;;;;11.40;9.00;;;;;;;;;;5092584;28;20667;-46
2021/09/07 09:00:02;;;;;;;9.43;8.43;;;;;;;;;;5093524;28;20170;-46
2021/09/07 09:02:28;;;;;;;9.48;8.45;;;;;;;;;;5081490;28;20567;-46
2021/09/07 09:04:57;;;;;;;10.23;8.85;;;;;;;;;;5076382;28;20281;-46
2021/09/07 09:07:27;;;;;;;9.20;8.30;;;;;;;;;;5092807;28;20289;-46
2021/09/07 09:09:53;;;;;;;9.95;8.52;;;;;;;;;;5091808;28;20193;-46
2021/09/07 09:12:29;;;;;;;9.10;8.02;;;;;;;;;;5101582;28;20264;-46
2021/09/07 09:14:56;;;;;;;9.80;7.78;;;;;;;;;;5091865;28;20247;-46
2021/09/07 09:17:23;;;;;;;10.20;7.88;;;;;;;;;;5087448;28;20181;-46
2021/09/07 09:19:49;;;;;;;8.75;7.85;;;;;;;;;;5087932;28;20190;-46
2021/09/07 09:22:15;;;;;;;9.45;8.32;;;;;;;;;;5087630;28;20178;-46
2021/09/07 09:24:42;;;;;;;9.27;8.13;;;;;;;;;;5080734;28;20186;-46
2021/09/07 09:27:09;;;;;;;9.13;8.15;;;;;;;;;;5085418;28;20182;-46
2021/09/07 09:29:37;;;;;;;9.55;7.60;;;;;;;;;;5090988;28;20185;-45
2021/09/07 09:32:04;;;;;;;8.15;7.35;;;;;;;;;;5097536;28;20186;-45
2021/09/07 09:34:31;;;;;;;9.15;8.02;;;;;;;;;;5104581;28;20212;-45
2021/09/07 09:36:58;;;;;;;9.70;7.75;;;;;;;;;;5078931;28;20174;-46
2021/09/07 09:39:34;;;;;;;7.97;7.18;;;;;;;;;;5099371;28;20182;-46
2021/09/07 09:42:00;;;;;;;8.40;7.57;;;;;;;;;;5089860;28;20275;-46
2021/09/07 09:44:27;;;;;;;9.23;7.82;;;;;;;;;;5089836;28;20571;-46
2021/09/07 09:46:54;;;;;;;8.68;7.80;;;;;;;;;;5080882;28;20466;-46
2021/09/07 09:49:22;;;;;;;9.57;8.00;;;;;;;;;;5071798;28;20746;-46
2021/09/07 09:51:48;;;;;;;10.30;8.57;;;;;;;;;;5093285;28;20170;-46
2021/09/07 09:54:14;;;;;;;9.85;8.73;;;;;;;;;;5087754;28;20202;-46
2021/09/07 09:56:41;;;;;;;9.05;7.88;;;;;;;;;;5075854;28;20581;-46
2021/09/07 09:59:07;;;;;;;9.18;8.18;;;;;;;;;;5081091;28;20587;-46
2021/09/07 10:01:33;;;;;;;8.77;7.85;;;;;;;;;;5083625;28;20197;-46
2021/09/07 10:04:00;;;;;;;11.23;8.85;;;;;;;;;;5096124;28;20194;-46
2021/09/07 10:06:27;;;;;;;13.35;9.25;;;;;;;;;;5094708;28;20181;-46
2021/09/07 10:08:54;;;;;;;10.95;9.13;;;;;;;;;;5080633;28;20217;-46
2021/09/07 10:11:24;;;;;;;10.27;8.98;;;;;;;;;;5085198;28;20216;-46
2021/09/07 10:13:56;;;;;;;12.45;9.85;;;;;;;;;;5081495;28;20449;-46
2021/09/07 10:16:42;;;;;;;10.10;8.93;;;;;;;;;;5094923;28;21707;-46
2021/09/07 10:19:13;;;;;;;12.50;9.63;;;;;;;;;;5082880;28;20522;-46
2021/09/07 10:26:39;;;;;;;10.77;9.18;;;;;;;;;;5075482;28;20193;-46
2021/09/07 10:29:13;;;;;;;12.15;9.10;;;;;;;;;;5091035;28;20178;-45
2021/09/07 10:31:40;;;;;;;11.63;8.27;;;;;;;;;;5087814;28;20215;-46
2021/09/07 10:34:07;;;;;;;11.32;8.38;;;;;;;;;;5108039;28;20596;-46
2021/09/07 10:36:36;;;;;;;10.05;8.30;;;;;;;;;;5098840;28;20174;-46
2021/09/07 10:39:04;;;;;;;10.10;8.20;;;;;;;;;;5094279;28;20182;-46
2021/09/07 10:41:30;;;;;;;8.75;7.78;;;;;;;;;;5085319;28;20198;-46
2021/09/07 10:44:02;;;;;;;10.80;8.52;;;;;;;;;;5095462;28;20193;-46
2021/09/07 10:46:46;;;;;;;8.23;7.35;;;;;;;;;;5088236;28;20265;-46
2021/09/07 10:49:23;;;;;;;9.30;8.40;;;;;;;;;;5100589;28;20193;-46
2021/09/07 10:52:12;;;;;;;9.60;7.68;;;;;;;;;;5091851;28;20170;-46
2021/09/07 10:54:50;;;;;;;9.10;7.85;;;;;;;;;;5088203;28;20237;-46
2021/09/07 10:57:35;;;;;;;8.10;7.25;;;;;;;;;;5074667;28;20170;-46
2021/09/07 11:00:01;;;;;;;8.80;7.78;;;;;;;;;;5094515;28;20257;-46
2021/09/07 11:02:30;;;;;;;8.55;7.75;;;;;;;;;;5095204;28;20864;-46
2021/09/07 11:04:58;;;;;;;8.57;7.68;;;;;;;;;;5095654;28;20273;-46
2021/09/07 11:07:33;;;;;;;8.55;7.72;;;;;;;;;;5090496;28;20174;-46
2021/09/07 11:09:59;;;;;;;8.55;7.72;;;;;;;;;;5079146;28;20236;-46
2021/09/07 11:12:26;;;;;;;8.23;7.43;;;;;;;;;;5077278;28;20214;-46
2021/09/07 11:15:01;;;;;;;8.70;7.80;;;;;;;;;;5093747;28;20201;-46
2021/09/07 11:17:28;;;;;;;9.07;7.55;;;;;;;;;;5095037;28;20166;-46
2021/09/07 11:20:02;;;;;;;8.30;7.45;;;;;;;;;;5095189;28;20169;-46
2021/09/07 11:22:29;;;;;;;8.98;7.88;;;;;;;;;;5095496;28;20480;-46
2021/09/07 11:25:06;;;;;;;9.50;7.70;;;;;;;;;;5095223;28;20261;-46
2021/09/07 11:27:47;;;;;;;8.40;7.50;;;;;;;;;;5081974;28;20181;-46
2021/09/07 11:30:23;;;;;;;8.43;7.38;;;;;;;;;;5084997;28;20211;-46
2021/09/07 11:32:49;;;;;;;9.00;7.90;;;;;;;;;;5095442;28;20499;-46
2021/09/07 11:35:15;;;;;;;8.45;7.60;;;;;;;;;;5094779;28;20193;-46
2021/09/07 11:37:41;;;;;;;8.38;7.45;;;;;;;;;;5094287;28;20514;-46
2021/09/07 11:40:16;;;;;;;9.15;8.23;;;;;;;;;;5093657;28;20177;-46
2021/09/07 11:42:47;;;;;;;8.35;7.50;;;;;;;;;;5094967;28;20186;-46
2021/09/07 11:45:34;;;;;;;9.07;7.15;;;;;;;;;;5077748;28;20177;-46
2021/09/07 11:48:01;;;;;;;8.02;7.18;;;;;;;;;;5094429;28;20174;-46
2021/09/07 11:50:31;;;;;;;8.32;7.50;;;;;;;;;;5094353;28;20170;-46
2021/09/07 11:52:59;;;;;;;8.52;7.43;;;;;;;;;;5095129;28;20467;-46
2021/09/07 11:55:37;;;;;;;7.55;6.85;;;;;;;;;;5084295;28;20963;-46
2021/09/07 11:58:03;;;;;;;8.77;7.88;;;;;;;;;;5094357;28;20177;-46
2021/09/07 12:00:29;;;;;;;8.30;6.90;;;;;;;;;;5094435;28;20201;-46
2021/09/07 12:03:11;;;;;;;7.95;6.97;;;;;;;;;;5094372;28;20235;-46
2021/09/07 12:05:50;;;;;;;8.27;7.47;;;;;;;;;;5093346;28;20202;-46
2021/09/07 12:08:16;;;;;;;8.27;7.47;;;;;;;;;;5088757;28;20202;-46
2021/09/07 12:10:53;;;;;;;8.07;7.28;;;;;;;;;;5074305;28;20228;-46
2021/09/07 12:13:20;;;;;;;8.48;7.50;;;;;;;;;;5076965;28;20449;-46
2021/09/07 12:15:46;;;;;;;9.88;7.13;;;;;;;;;;5094342;28;20204;-46
2021/09/07 12:18:27;;;;;;;8.65;7.75;;;;;;;;;;5091467;28;20174;-46
2021/09/07 12:21:05;;;;;;;8.27;7.47;;;;;;;;;;5094402;28;20166;-46
2021/09/07 12:23:32;;;;;;;8.30;7.50;;;;;;;;;;5077613;28;20178;-46
2021/09/07 12:25:58;;;;;;;9.35;7.50;;;;;;;;;;5074154;28;20281;-46
2021/09/07 12:28:24;;;;;;;7.30;6.55;;;;;;;;;;5073894;28;20264;-46
2021/09/07 12:30:50;;;;;;;7.95;7.15;;;;;;;;;;5080308;28;20235;-46
2021/09/07 12:33:21;;;;;;;8.45;7.53;;;;;;;;;;5094204;28;20213;-46
2021/09/07 12:35:59;;;;;;;7.38;6.68;;;;;;;;;;5093517;28;20200;-46
2021/09/07 12:38:25;;;;;;;7.80;7.00;;;;;;;;;;5093393;28;20205;-46
2021/09/07 12:40:53;;;;;;;8.43;7.60;;;;;;;;;;5093522;28;20190;-46
2021/09/07 12:43:20;;;;;;;10.10;6.90;;;;;;;;;;5094572;28;20253;-46
2021/09/07 12:45:47;;;;;;;9.82;7.38;;;;;;;;;;5093911;28;20177;-46
2021/09/07 12:48:14;;;;;;;7.30;6.55;;;;;;;;;;5093762;28;20201;-46
2021/09/07 12:50:40;;;;;;;8.57;7.60;;;;;;;;;;5088404;28;20173;-46
2021/09/07 12:53:08;;;;;;;8.00;7.13;;;;;;;;;;5093881;28;20277;-46
2021/09/07 12:55:37;;;;;;;7.18;6.57;;;;;;;;;;5094396;28;20201;-46
2021/09/07 12:58:07;;;;;;;7.88;6.97;;;;;;;;;;5097593;28;20526;-46
2021/09/07 13:00:33;;;;;;;8.43;7.50;;;;;;;;;;5097801;28;20201;-46
2021/09/07 13:02:59;;;;;;;7.57;6.82;;;;;;;;;;5098064;28;20197;-46
2021/09/07 13:05:25;;;;;;;8.15;7.22;;;;;;;;;;5079399;28;20450;-46
2021/09/07 13:07:51;;;;;;;8.82;6.95;;;;;;;;;;5096807;28;20216;-45
2021/09/07 13:10:17;;;;;;;7.40;6.55;;;;;;;;;;5084581;28;20299;-46
2021/09/07 13:12:43;;;;;;;8.45;7.25;;;;;;;;;;5077632;28;20193;-46
2021/09/07 13:15:09;;;;;;;7.90;7.10;;;;;;;;;;5095443;28;20258;-46
2021/09/07 13:17:35;;;;;;;7.25;6.55;;;;;;;;;;5096854;28;20173;-46
2021/09/07 13:20:01;;;;;;;8.68;6.70;;;;;;;;;;5097133;28;20250;-46
2021/09/07 13:22:27;;;;;;;9.20;7.38;;;;;;;;;;5097413;28;20174;-46
2021/09/07 13:24:53;;;;;;;8.88;7.43;;;;;;;;;;5097577;28;20182;-46
2021/09/07 13:27:19;;;;;;;7.85;7.05;;;;;;;;;;5097252;28;20534;-45
2021/09/07 13:29:45;;;;;;;7.68;6.88;;;;;;;;;;5097526;28;20166;-45
2021/09/07 13:32:11;;;;;;;8.68;7.13;;;;;;;;;;5079189;28;20550;-45
2021/09/07 13:34:37;;;;;;;8.00;6.53;;;;;;;;;;5076856;28;20198;-45
2021/09/07 13:37:04;;;;;;;8.95;7.45;;;;;;;;;;5077557;28;20426;-45
2021/09/07 13:39:30;;;;;;;6.88;6.28;;;;;;;;;;5096800;28;20263;-46
2021/09/07 13:41:56;;;;;;;7.32;6.63;;;;;;;;;;5085387;28;20553;-46
2021/09/07 13:44:22;;;;;;;7.18;6.47;;;;;;;;;;5092976;28;20187;-46
2021/09/07 13:46:48;;;;;;;7.65;6.78;;;;;;;;;;5077000;28;20200;-46
2021/09/07 13:49:14;;;;;;;7.53;6.78;;;;;;;;;;5081040;28;20211;-46
2021/09/07 13:51:40;;;;;;;7.22;6.53;;;;;;;;;;5095432;28;20561;-46
2021/09/07 13:54:06;;;;;;;7.55;6.75;;;;;;;;;;5088672;28;20475;-46
2021/09/07 13:56:32;;;;;;;6.97;6.28;;;;;;;;;;5089381;28;20162;-46
2021/09/07 13:58:58;;;;;;;7.20;6.50;;;;;;;;;;5086241;28;20196;-46
2021/09/07 14:01:25;;;;;;;7.55;6.75;;;;;;;;;;5096614;28;20549;-46
2021/09/07 14:03:51;;;;;;;8.80;7.00;;;;;;;;;;5096522;28;20166;-46
2021/09/07 14:06:17;;;;;;;6.72;6.13;;;;;;;;;;5096180;28;20186;-46
2021/09/07 14:08:43;;;;;;;7.55;6.85;;;;;;;;;;5095152;28;20494;-46
2021/09/07 14:11:09;;;;;;;7.50;6.45;;;;;;;;;;5096035;28;20266;-46
2021/09/07 14:13:35;;;;;;;6.97;6.28;;;;;;;;;;5089967;28;20514;-46
2021/09/07 14:16:02;;;;;;;7.68;6.82;;;;;;;;;;5096539;28;20239;-46
2021/09/07 14:18:31;;;;;;;9.07;6.57;;;;;;;;;;5095440;28;20181;-46
2021/09/07 14:20:57;;;;;;;11.25;6.10;;;;;;;;;;5096391;28;20162;-46
2021/09/07 14:23:23;;;;;;;10.60;6.68;;;;;;;;;;5096540;28;20186;-46
2021/09/07 14:25:49;;;;;;;11.30;7.00;;;;;;;;;;5093285;28;20185;-46
2021/09/07 14:28:15;;;;;;;8.27;6.55;;;;;;;;;;5090607;28;20194;-46
2021/09/07 14:30:42;;;;;;;10.02;7.00;;;;;;;;;;5095645;28;20270;-46
2021/09/07 14:33:08;;;;;;;9.35;6.63;;;;;;;;;;5096250;28;20170;-46
2021/09/07 14:35:34;;;;;;;10.40;7.20;;;;;;;;;;5095470;28;20243;-46
2021/09/07 14:38:00;;;;;;;8.73;6.70;;;;;;;;;;5090758;28;20265;-46
2021/09/07 14:40:26;;;;;;;12.52;7.05;;;;;;;;;;5094802;28;20178;-46
2021/09/07 14:42:52;;;;;;;9.15;6.90;;;;;;;;;;5094886;28;20246;-45